sensor_id;sensor_type;location;lat;lon;timestamp;P1;durP1;ratioP1;P2;durP2;ratioP2
13485;SDS011;6815;59.336;17.998;2024-01-27T00:01:45;4.43;;;2.70;;
13485;SDS011;6815;59.336;17.998;2024-01-27T00:04:10;5.37;;;2.63;;
13485;SDS011;6815;59.336;17.998;2024-01-27T00:06:36;4.67;;;2.83;;
13485;SDS011;6815;59.336;17.998;2024-01-27T00:09:01;7.30;;;2.90;;
13485;SDS011;6815;59.336;17.998;2024-01-27T00:11:27;8.90;;;2.57;;
13485;SDS011;6815;59.336;17.998;2024-01-27T00:13:52;4.03;;;2.70;;
13485;SDS011;6815;59.336;17.998;2024-01-27T00:16:18;7.70;;;2.73;;
13485;SDS011;6815;59.336;17.998;2024-01-27T00:18:43;8.23;;;3.57;;
13485;SDS011;6815;59.336;17.998;2024-01-27T00:21:09;7.13;;;3.87;;
13485;SDS011;6815;59.336;17.998;2024-01-27T00:23:34;7.07;;;3.33;;
13485;SDS011;6815;59.336;17.998;2024-01-27T00:26:00;7.63;;;3.30;;
13485;SDS011;6815;59.336;17.998;2024-01-27T00:28:27;5.20;;;2.87;;
13485;SDS011;6815;59.336;17.998;2024-01-27T00:30:53;7.23;;;3.00;;
13485;SDS011;6815;59.336;17.998;2024-01-27T00:33:19;8.93;;;3.23;;
13485;SDS011;6815;59.336;17.998;2024-01-27T00:35:44;15.17;;;3.83;;
13485;SDS011;6815;59.336;17.998;2024-01-27T00:38:09;10.97;;;3.73;;
13485;SDS011;6815;59.336;17.998;2024-01-27T00:40:35;10.87;;;3.50;;
13485;SDS011;6815;59.336;17.998;2024-01-27T00:43:03;7.43;;;4.27;;
13485;SDS011;6815;59.336;17.998;2024-01-27T00:45:29;11.57;;;4.00;;
13485;SDS011;6815;59.336;17.998;2024-01-27T00:47:55;9.20;;;3.50;;
13485;SDS011;6815;59.336;17.998;2024-01-27T00:50:21;5.97;;;3.17;;
13485;SDS011;6815;59.336;17.998;2024-01-27T00:52:47;9.00;;;3.80;;
13485;SDS011;6815;59.336;17.998;2024-01-27T00:55:12;5.90;;;3.20;;
13485;SDS011;6815;59.336;17.998;2024-01-27T00:57:38;9.40;;;3.83;;
13485;SDS011;6815;59.336;17.998;2024-01-27T01:00:04;5.80;;;2.90;;
13485;SDS011;6815;59.336;17.998;2024-01-27T01:02:31;5.60;;;3.30;;
13485;SDS011;6815;59.336;17.998;2024-01-27T01:04:57;7.40;;;3.53;;
13485;SDS011;6815;59.336;17.998;2024-01-27T01:07:22;4.73;;;3.13;;
13485;SDS011;6815;59.336;17.998;2024-01-27T01:09:48;5.33;;;3.73;;
13485;SDS011;6815;59.336;17.998;2024-01-27T01:12:13;6.73;;;4.47;;
13485;SDS011;6815;59.336;17.998;2024-01-27T01:14:40;6.57;;;4.43;;
13485;SDS011;6815;59.336;17.998;2024-01-27T01:17:05;6.13;;;4.40;;
13485;SDS011;6815;59.336;17.998;2024-01-27T01:19:31;6.60;;;3.80;;
13485;SDS011;6815;59.336;17.998;2024-01-27T01:21:56;6.83;;;3.70;;
13485;SDS011;6815;59.336;17.998;2024-01-27T01:24:22;5.90;;;3.50;;
13485;SDS011;6815;59.336;17.998;2024-01-27T01:26:47;5.67;;;4.10;;
13485;SDS011;6815;59.336;17.998;2024-01-27T01:29:12;5.10;;;3.60;;
13485;SDS011;6815;59.336;17.998;2024-01-27T01:31:38;5.57;;;4.20;;
13485;SDS011;6815;59.336;17.998;2024-01-27T01:34:07;5.57;;;3.70;;
13485;SDS011;6815;59.336;17.998;2024-01-27T01:36:33;5.47;;;3.60;;
13485;SDS011;6815;59.336;17.998;2024-01-27T01:38:58;5.80;;;3.63;;
13485;SDS011;6815;59.336;17.998;2024-01-27T01:41:24;6.00;;;3.70;;
13485;SDS011;6815;59.336;17.998;2024-01-27T01:43:49;6.73;;;4.30;;
13485;SDS011;6815;59.336;17.998;2024-01-27T01:46:15;7.03;;;3.80;;
13485;SDS011;6815;59.336;17.998;2024-01-27T01:48:40;6.63;;;4.13;;
13485;SDS011;6815;59.336;17.998;2024-01-27T01:51:06;6.17;;;3.73;;
13485;SDS011;6815;59.336;17.998;2024-01-27T01:53:31;7.13;;;4.10;;
13485;SDS011;6815;59.336;17.998;2024-01-27T01:55:57;5.90;;;3.87;;
13485;SDS011;6815;59.336;17.998;2024-01-27T01:58:29;6.63;;;4.40;;
13485;SDS011;6815;59.336;17.998;2024-01-27T02:00:59;5.80;;;4.30;;
13485;SDS011;6815;59.336;17.998;2024-01-27T02:03:25;6.90;;;4.70;;
13485;SDS011;6815;59.336;17.998;2024-01-27T02:05:51;5.70;;;3.90;;
13485;SDS011;6815;59.336;17.998;2024-01-27T02:08:16;6.87;;;4.83;;
13485;SDS011;6815;59.336;17.998;2024-01-27T02:10:42;6.57;;;4.43;;
13485;SDS011;6815;59.336;17.998;2024-01-27T02:13:17;6.90;;;4.70;;
13485;SDS011;6815;59.336;17.998;2024-01-27T02:15:47;6.63;;;4.50;;
13485;SDS011;6815;59.336;17.998;2024-01-27T02:18:13;6.77;;;4.37;;
13485;SDS011;6815;59.336;17.998;2024-01-27T02:20:39;6.93;;;4.47;;
13485;SDS011;6815;59.336;17.998;2024-01-27T02:23:06;7.80;;;4.80;;
13485;SDS011;6815;59.336;17.998;2024-01-27T02:25:32;8.73;;;5.10;;
13485;SDS011;6815;59.336;17.998;2024-01-27T02:27:58;6.83;;;4.60;;
13485;SDS011;6815;59.336;17.998;2024-01-27T02:30:24;7.10;;;4.80;;
13485;SDS011;6815;59.336;17.998;2024-01-27T02:32:50;7.83;;;4.90;;
13485;SDS011;6815;59.336;17.998;2024-01-27T02:35:15;7.97;;;4.77;;
13485;SDS011;6815;59.336;17.998;2024-01-27T02:37:41;8.47;;;5.13;;
13485;SDS011;6815;59.336;17.998;2024-01-27T02:40:07;8.00;;;5.33;;
13485;SDS011;6815;59.336;17.998;2024-01-27T02:42:34;6.83;;;4.90;;
13485;SDS011;6815;59.336;17.998;2024-01-27T02:45:00;5.77;;;4.00;;
13485;SDS011;6815;59.336;17.998;2024-01-27T02:47:26;6.13;;;3.50;;
13485;SDS011;6815;59.336;17.998;2024-01-27T02:49:51;5.90;;;3.40;;
13485;SDS011;6815;59.336;17.998;2024-01-27T02:52:17;4.10;;;3.10;;
13485;SDS011;6815;59.336;17.998;2024-01-27T02:54:42;4.50;;;3.10;;
13485;SDS011;6815;59.336;17.998;2024-01-27T02:57:08;4.40;;;3.00;;
13485;SDS011;6815;59.336;17.998;2024-01-27T02:59:33;3.80;;;2.77;;
13485;SDS011;6815;59.336;17.998;2024-01-27T03:01:59;2.53;;;2.20;;
13485;SDS011;6815;59.336;17.998;2024-01-27T03:04:24;3.00;;;2.17;;
13485;SDS011;6815;59.336;17.998;2024-01-27T03:06:50;2.60;;;1.90;;
13485;SDS011;6815;59.336;17.998;2024-01-27T03:09:15;2.63;;;1.97;;
13485;SDS011;6815;59.336;17.998;2024-01-27T03:11:41;2.00;;;1.70;;
13485;SDS011;6815;59.336;17.998;2024-01-27T03:14:06;2.97;;;1.50;;
13485;SDS011;6815;59.336;17.998;2024-01-27T03:16:32;1.37;;;1.27;;
13485;SDS011;6815;59.336;17.998;2024-01-27T03:18:57;1.53;;;1.43;;
13485;SDS011;6815;59.336;17.998;2024-01-27T03:21:23;1.30;;;1.20;;
13485;SDS011;6815;59.336;17.998;2024-01-27T03:23:48;1.50;;;1.30;;
13485;SDS011;6815;59.336;17.998;2024-01-27T03:26:14;1.20;;;1.10;;
13485;SDS011;6815;59.336;17.998;2024-01-27T03:28:39;0.90;;;0.90;;
13485;SDS011;6815;59.336;17.998;2024-01-27T03:31:05;0.97;;;0.97;;
13485;SDS011;6815;59.336;17.998;2024-01-27T03:33:30;1.03;;;0.93;;
13485;SDS011;6815;59.336;17.998;2024-01-27T03:35:56;0.83;;;0.83;;
13485;SDS011;6815;59.336;17.998;2024-01-27T03:38:21;1.00;;;1.00;;
13485;SDS011;6815;59.336;17.998;2024-01-27T03:40:47;0.80;;;0.70;;
13485;SDS011;6815;59.336;17.998;2024-01-27T03:43:13;1.00;;;0.90;;
13485;SDS011;6815;59.336;17.998;2024-01-27T03:45:38;0.93;;;0.90;;
13485;SDS011;6815;59.336;17.998;2024-01-27T03:48:04;1.10;;;1.00;;
13485;SDS011;6815;59.336;17.998;2024-01-27T03:50:30;0.80;;;0.80;;
13485;SDS011;6815;59.336;17.998;2024-01-27T03:52:55;0.80;;;0.80;;
13485;SDS011;6815;59.336;17.998;2024-01-27T03:55:21;1.00;;;0.97;;
13485;SDS011;6815;59.336;17.998;2024-01-27T03:57:46;0.77;;;0.77;;
13485;SDS011;6815;59.336;17.998;2024-01-27T04:00:12;1.73;;;0.90;;
13485;SDS011;6815;59.336;17.998;2024-01-27T04:02:37;1.07;;;0.97;;
13485;SDS011;6815;59.336;17.998;2024-01-27T04:05:03;0.90;;;0.90;;
13485;SDS011;6815;59.336;17.998;2024-01-27T04:07:30;0.90;;;0.90;;
13485;SDS011;6815;59.336;17.998;2024-01-27T04:09:56;0.93;;;0.90;;
13485;SDS011;6815;59.336;17.998;2024-01-27T04:12:21;0.83;;;0.83;;
13485;SDS011;6815;59.336;17.998;2024-01-27T04:14:47;0.80;;;0.80;;
13485;SDS011;6815;59.336;17.998;2024-01-27T04:17:12;1.33;;;1.10;;
13485;SDS011;6815;59.336;17.998;2024-01-27T04:19:37;0.90;;;0.90;;
13485;SDS011;6815;59.336;17.998;2024-01-27T04:22:03;0.70;;;0.70;;
13485;SDS011;6815;59.336;17.998;2024-01-27T04:24:28;1.43;;;1.30;;
13485;SDS011;6815;59.336;17.998;2024-01-27T04:26:54;0.80;;;0.80;;
13485;SDS011;6815;59.336;17.998;2024-01-27T04:29:20;0.70;;;0.70;;
13485;SDS011;6815;59.336;17.998;2024-01-27T04:31:45;1.37;;;1.00;;
13485;SDS011;6815;59.336;17.998;2024-01-27T04:34:10;0.83;;;0.83;;
13485;SDS011;6815;59.336;17.998;2024-01-27T04:36:36;0.83;;;0.83;;
13485;SDS011;6815;59.336;17.998;2024-01-27T04:39:02;1.13;;;1.03;;
13485;SDS011;6815;59.336;17.998;2024-01-27T04:41:27;1.70;;;1.00;;
13485;SDS011;6815;59.336;17.998;2024-01-27T04:43:53;0.87;;;0.87;;
13485;SDS011;6815;59.336;17.998;2024-01-27T04:46:21;0.93;;;0.90;;
13485;SDS011;6815;59.336;17.998;2024-01-27T04:48:46;1.10;;;1.00;;
13485;SDS011;6815;59.336;17.998;2024-01-27T04:51:12;1.07;;;1.00;;
13485;SDS011;6815;59.336;17.998;2024-01-27T04:53:37;1.07;;;0.97;;
13485;SDS011;6815;59.336;17.998;2024-01-27T04:56:03;1.10;;;1.00;;
13485;SDS011;6815;59.336;17.998;2024-01-27T04:58:32;2.50;;;1.10;;
13485;SDS011;6815;59.336;17.998;2024-01-27T05:00:59;1.10;;;0.90;;
13485;SDS011;6815;59.336;17.998;2024-01-27T05:03:24;1.30;;;0.90;;
13485;SDS011;6815;59.336;17.998;2024-01-27T05:05:49;0.70;;;0.70;;
13485;SDS011;6815;59.336;17.998;2024-01-27T05:08:16;0.80;;;0.73;;
13485;SDS011;6815;59.336;17.998;2024-01-27T05:10:42;1.20;;;1.10;;
13485;SDS011;6815;59.336;17.998;2024-01-27T05:13:07;1.37;;;0.87;;
13485;SDS011;6815;59.336;17.998;2024-01-27T05:15:33;0.90;;;0.80;;
13485;SDS011;6815;59.336;17.998;2024-01-27T05:17:58;0.50;;;0.50;;
13485;SDS011;6815;59.336;17.998;2024-01-27T05:20:24;1.33;;;0.90;;
13485;SDS011;6815;59.336;17.998;2024-01-27T05:22:49;0.80;;;0.80;;
13485;SDS011;6815;59.336;17.998;2024-01-27T05:25:15;0.90;;;0.80;;
13485;SDS011;6815;59.336;17.998;2024-01-27T05:27:41;0.93;;;0.93;;
13485;SDS011;6815;59.336;17.998;2024-01-27T05:30:07;0.93;;;0.90;;
13485;SDS011;6815;59.336;17.998;2024-01-27T05:32:33;1.37;;;0.97;;
13485;SDS011;6815;59.336;17.998;2024-01-27T05:34:58;1.33;;;1.20;;
13485;SDS011;6815;59.336;17.998;2024-01-27T05:37:24;0.70;;;0.70;;
13485;SDS011;6815;59.336;17.998;2024-01-27T05:39:49;0.77;;;0.77;;
13485;SDS011;6815;59.336;17.998;2024-01-27T05:42:15;0.90;;;0.70;;
13485;SDS011;6815;59.336;17.998;2024-01-27T05:44:40;0.77;;;0.73;;
13485;SDS011;6815;59.336;17.998;2024-01-27T05:47:06;0.80;;;0.80;;
13485;SDS011;6815;59.336;17.998;2024-01-27T05:49:32;0.83;;;0.80;;
13485;SDS011;6815;59.336;17.998;2024-01-27T05:51:58;1.00;;;0.90;;
13485;SDS011;6815;59.336;17.998;2024-01-27T05:54:24;1.00;;;0.90;;
13485;SDS011;6815;59.336;17.998;2024-01-27T05:56:49;1.00;;;0.90;;
13485;SDS011;6815;59.336;17.998;2024-01-27T05:59:15;1.53;;;0.87;;
13485;SDS011;6815;59.336;17.998;2024-01-27T06:01:41;0.70;;;0.70;;
13485;SDS011;6815;59.336;17.998;2024-01-27T06:04:08;1.07;;;0.77;;
13485;SDS011;6815;59.336;17.998;2024-01-27T06:06:34;1.13;;;0.70;;
13485;SDS011;6815;59.336;17.998;2024-01-27T06:08:59;0.70;;;0.70;;
13485;SDS011;6815;59.336;17.998;2024-01-27T06:11:25;0.70;;;0.70;;
13485;SDS011;6815;59.336;17.998;2024-01-27T06:13:52;0.77;;;0.67;;
13485;SDS011;6815;59.336;17.998;2024-01-27T06:16:17;1.00;;;0.90;;
13485;SDS011;6815;59.336;17.998;2024-01-27T06:18:45;1.20;;;0.90;;
13485;SDS011;6815;59.336;17.998;2024-01-27T06:21:11;1.23;;;0.97;;
13485;SDS011;6815;59.336;17.998;2024-01-27T06:23:37;0.80;;;0.70;;
13485;SDS011;6815;59.336;17.998;2024-01-27T06:26:09;1.97;;;0.90;;
13485;SDS011;6815;59.336;17.998;2024-01-27T06:28:35;0.80;;;0.70;;
13485;SDS011;6815;59.336;17.998;2024-01-27T06:31:02;0.80;;;0.80;;
13485;SDS011;6815;59.336;17.998;2024-01-27T06:33:28;0.70;;;0.70;;
13485;SDS011;6815;59.336;17.998;2024-01-27T06:35:53;2.27;;;0.67;;
13485;SDS011;6815;59.336;17.998;2024-01-27T06:38:19;0.97;;;0.87;;
13485;SDS011;6815;59.336;17.998;2024-01-27T06:40:44;0.73;;;0.73;;
13485;SDS011;6815;59.336;17.998;2024-01-27T06:43:12;3.67;;;0.90;;
13485;SDS011;6815;59.336;17.998;2024-01-27T06:45:38;0.90;;;0.77;;
13485;SDS011;6815;59.336;17.998;2024-01-27T06:48:05;1.00;;;0.90;;
13485;SDS011;6815;59.336;17.998;2024-01-27T06:50:31;0.93;;;0.80;;
13485;SDS011;6815;59.336;17.998;2024-01-27T06:52:57;1.33;;;0.83;;
13485;SDS011;6815;59.336;17.998;2024-01-27T06:55:22;1.83;;;1.10;;
13485;SDS011;6815;59.336;17.998;2024-01-27T06:57:48;0.87;;;0.80;;
13485;SDS011;6815;59.336;17.998;2024-01-27T07:00:14;0.93;;;0.80;;
13485;SDS011;6815;59.336;17.998;2024-01-27T07:02:40;0.80;;;0.80;;
13485;SDS011;6815;59.336;17.998;2024-01-27T07:05:07;1.03;;;0.80;;
13485;SDS011;6815;59.336;17.998;2024-01-27T07:07:33;1.40;;;0.93;;
13485;SDS011;6815;59.336;17.998;2024-01-27T07:09:59;1.07;;;0.73;;
13485;SDS011;6815;59.336;17.998;2024-01-27T07:12:24;1.80;;;0.80;;
13485;SDS011;6815;59.336;17.998;2024-01-27T07:14:50;1.50;;;0.70;;
13485;SDS011;6815;59.336;17.998;2024-01-27T07:17:22;1.07;;;0.70;;
13485;SDS011;6815;59.336;17.998;2024-01-27T07:19:49;0.83;;;0.80;;
13485;SDS011;6815;59.336;17.998;2024-01-27T07:22:16;1.77;;;0.80;;
13485;SDS011;6815;59.336;17.998;2024-01-27T07:24:41;0.97;;;0.90;;
13485;SDS011;6815;59.336;17.998;2024-01-27T07:27:07;1.10;;;0.80;;
13485;SDS011;6815;59.336;17.998;2024-01-27T07:29:32;1.17;;;1.00;;
13485;SDS011;6815;59.336;17.998;2024-01-27T07:31:58;2.47;;;1.30;;
13485;SDS011;6815;59.336;17.998;2024-01-27T07:34:25;1.70;;;1.20;;
13485;SDS011;6815;59.336;17.998;2024-01-27T07:36:50;2.47;;;1.30;;
13485;SDS011;6815;59.336;17.998;2024-01-27T07:39:16;1.90;;;0.93;;
13485;SDS011;6815;59.336;17.998;2024-01-27T07:41:41;3.40;;;1.20;;
13485;SDS011;6815;59.336;17.998;2024-01-27T07:44:09;1.30;;;1.00;;
13485;SDS011;6815;59.336;17.998;2024-01-27T07:46:35;3.63;;;1.10;;
13485;SDS011;6815;59.336;17.998;2024-01-27T07:49:02;1.00;;;0.90;;
13485;SDS011;6815;59.336;17.998;2024-01-27T07:51:28;2.07;;;1.10;;
13485;SDS011;6815;59.336;17.998;2024-01-27T07:53:53;2.03;;;1.17;;
13485;SDS011;6815;59.336;17.998;2024-01-27T07:56:19;2.80;;;0.97;;
13485;SDS011;6815;59.336;17.998;2024-01-27T07:58:44;1.77;;;1.10;;
13485;SDS011;6815;59.336;17.998;2024-01-27T08:01:10;1.93;;;1.10;;
13485;SDS011;6815;59.336;17.998;2024-01-27T08:03:39;1.57;;;0.90;;
13485;SDS011;6815;59.336;17.998;2024-01-27T08:06:06;1.47;;;0.90;;
13485;SDS011;6815;59.336;17.998;2024-01-27T08:08:34;2.23;;;1.03;;
13485;SDS011;6815;59.336;17.998;2024-01-27T08:10:59;2.30;;;1.03;;
13485;SDS011;6815;59.336;17.998;2024-01-27T08:13:25;1.33;;;0.93;;
13485;SDS011;6815;59.336;17.998;2024-01-27T08:15:50;5.40;;;1.17;;
13485;SDS011;6815;59.336;17.998;2024-01-27T08:18:16;3.30;;;1.33;;
13485;SDS011;6815;59.336;17.998;2024-01-27T08:20:41;2.47;;;1.20;;
13485;SDS011;6815;59.336;17.998;2024-01-27T08:23:07;1.63;;;1.10;;
13485;SDS011;6815;59.336;17.998;2024-01-27T08:25:34;3.73;;;1.00;;
13485;SDS011;6815;59.336;17.998;2024-01-27T08:27:59;4.80;;;1.53;;
13485;SDS011;6815;59.336;17.998;2024-01-27T08:30:25;2.93;;;1.00;;
13485;SDS011;6815;59.336;17.998;2024-01-27T08:32:50;4.47;;;1.00;;
13485;SDS011;6815;59.336;17.998;2024-01-27T08:35:16;5.77;;;1.30;;
13485;SDS011;6815;59.336;17.998;2024-01-27T08:37:41;2.77;;;1.10;;
13485;SDS011;6815;59.336;17.998;2024-01-27T08:40:07;5.10;;;1.20;;
13485;SDS011;6815;59.336;17.998;2024-01-27T08:42:33;4.93;;;1.30;;
13485;SDS011;6815;59.336;17.998;2024-01-27T08:44:59;7.83;;;1.40;;
13485;SDS011;6815;59.336;17.998;2024-01-27T08:47:24;3.03;;;1.00;;
13485;SDS011;6815;59.336;17.998;2024-01-27T08:49:50;4.30;;;1.40;;
13485;SDS011;6815;59.336;17.998;2024-01-27T08:52:15;3.87;;;1.37;;
13485;SDS011;6815;59.336;17.998;2024-01-27T08:54:41;5.43;;;1.60;;
13485;SDS011;6815;59.336;17.998;2024-01-27T08:57:06;6.40;;;1.23;;
13485;SDS011;6815;59.336;17.998;2024-01-27T08:59:31;1.93;;;1.00;;
13485;SDS011;6815;59.336;17.998;2024-01-27T09:01:58;4.43;;;1.40;;
13485;SDS011;6815;59.336;17.998;2024-01-27T09:04:23;5.60;;;1.30;;
13485;SDS011;6815;59.336;17.998;2024-01-27T09:06:48;6.37;;;1.23;;
13485;SDS011;6815;59.336;17.998;2024-01-27T09:09:14;2.17;;;1.10;;
13485;SDS011;6815;59.336;17.998;2024-01-27T09:11:39;5.57;;;1.30;;
13485;SDS011;6815;59.336;17.998;2024-01-27T09:14:05;2.90;;;1.20;;
13485;SDS011;6815;59.336;17.998;2024-01-27T09:16:32;2.70;;;1.40;;
13485;SDS011;6815;59.336;17.998;2024-01-27T09:18:58;5.10;;;1.70;;
13485;SDS011;6815;59.336;17.998;2024-01-27T09:21:23;4.63;;;1.30;;
13485;SDS011;6815;59.336;17.998;2024-01-27T09:23:53;1.70;;;1.23;;
13485;SDS011;6815;59.336;17.998;2024-01-27T09:26:19;5.00;;;1.60;;
13485;SDS011;6815;59.336;17.998;2024-01-27T09:28:45;5.37;;;1.30;;
13485;SDS011;6815;59.336;17.998;2024-01-27T09:31:19;3.50;;;1.40;;
13485;SDS011;6815;59.336;17.998;2024-01-27T09:33:51;5.83;;;1.43;;
13485;SDS011;6815;59.336;17.998;2024-01-27T09:36:17;4.13;;;1.37;;
13485;SDS011;6815;59.336;17.998;2024-01-27T09:38:43;7.13;;;1.23;;
13485;SDS011;6815;59.336;17.998;2024-01-27T09:41:10;4.00;;;1.30;;
13485;SDS011;6815;59.336;17.998;2024-01-27T09:43:37;2.80;;;1.20;;
13485;SDS011;6815;59.336;17.998;2024-01-27T09:46:10;4.20;;;1.50;;
13485;SDS011;6815;59.336;17.998;2024-01-27T09:48:39;7.33;;;1.10;;
13485;SDS011;6815;59.336;17.998;2024-01-27T09:51:06;5.20;;;1.30;;
13485;SDS011;6815;59.336;17.998;2024-01-27T09:53:33;3.10;;;1.37;;
13485;SDS011;6815;59.336;17.998;2024-01-27T09:55:58;2.93;;;1.30;;
13485;SDS011;6815;59.336;17.998;2024-01-27T09:58:28;6.10;;;1.80;;
13485;SDS011;6815;59.336;17.998;2024-01-27T10:00:59;2.47;;;1.13;;
13485;SDS011;6815;59.336;17.998;2024-01-27T10:03:26;5.53;;;1.40;;
13485;SDS011;6815;59.336;17.998;2024-01-27T10:05:53;3.80;;;1.20;;
13485;SDS011;6815;59.336;17.998;2024-01-27T10:08:20;3.27;;;1.50;;
13485;SDS011;6815;59.336;17.998;2024-01-27T10:10:47;5.50;;;1.90;;
13485;SDS011;6815;59.336;17.998;2024-01-27T10:13:19;5.33;;;1.30;;
13485;SDS011;6815;59.336;17.998;2024-01-27T10:15:58;6.40;;;1.27;;
13485;SDS011;6815;59.336;17.998;2024-01-27T10:18:25;4.53;;;1.30;;
13485;SDS011;6815;59.336;17.998;2024-01-27T10:20:50;5.30;;;1.30;;
13485;SDS011;6815;59.336;17.998;2024-01-27T10:23:16;6.97;;;1.63;;
13485;SDS011;6815;59.336;17.998;2024-01-27T10:25:43;3.93;;;1.47;;
13485;SDS011;6815;59.336;17.998;2024-01-27T10:28:08;3.13;;;1.10;;
13485;SDS011;6815;59.336;17.998;2024-01-27T10:30:35;3.97;;;1.50;;
13485;SDS011;6815;59.336;17.998;2024-01-27T10:33:02;5.47;;;1.70;;
13485;SDS011;6815;59.336;17.998;2024-01-27T10:35:28;6.77;;;1.70;;
13485;SDS011;6815;59.336;17.998;2024-01-27T10:37:54;5.00;;;1.50;;
13485;SDS011;6815;59.336;17.998;2024-01-27T10:40:21;6.13;;;1.77;;
13485;SDS011;6815;59.336;17.998;2024-01-27T10:42:51;6.03;;;1.63;;
13485;SDS011;6815;59.336;17.998;2024-01-27T10:45:38;3.47;;;1.60;;
13485;SDS011;6815;59.336;17.998;2024-01-27T10:48:05;4.30;;;1.10;;
13485;SDS011;6815;59.336;17.998;2024-01-27T10:50:38;6.80;;;1.27;;
13485;SDS011;6815;59.336;17.998;2024-01-27T10:53:18;5.93;;;1.40;;
13485;SDS011;6815;59.336;17.998;2024-01-27T10:55:49;5.23;;;1.07;;
13485;SDS011;6815;59.336;17.998;2024-01-27T10:58:18;5.23;;;1.63;;
13485;SDS011;6815;59.336;17.998;2024-01-27T11:00:46;6.23;;;1.47;;
13485;SDS011;6815;59.336;17.998;2024-01-27T11:03:13;5.97;;;1.57;;
13485;SDS011;6815;59.336;17.998;2024-01-27T11:05:39;3.57;;;1.40;;
13485;SDS011;6815;59.336;17.998;2024-01-27T11:08:05;2.60;;;1.77;;
13485;SDS011;6815;59.336;17.998;2024-01-27T11:10:33;6.77;;;1.57;;
13485;SDS011;6815;59.336;17.998;2024-01-27T11:13:03;7.77;;;2.03;;
13485;SDS011;6815;59.336;17.998;2024-01-27T11:15:29;3.33;;;1.43;;
13485;SDS011;6815;59.336;17.998;2024-01-27T11:17:59;4.97;;;1.60;;
13485;SDS011;6815;59.336;17.998;2024-01-27T11:20:25;6.60;;;1.73;;
13485;SDS011;6815;59.336;17.998;2024-01-27T11:22:51;3.83;;;1.30;;
13485;SDS011;6815;59.336;17.998;2024-01-27T11:25:17;5.30;;;1.37;;
13485;SDS011;6815;59.336;17.998;2024-01-27T11:27:44;4.17;;;1.57;;
13485;SDS011;6815;59.336;17.998;2024-01-27T11:30:25;5.03;;;1.13;;
13485;SDS011;6815;59.336;17.998;2024-01-27T11:32:53;5.97;;;1.73;;
13485;SDS011;6815;59.336;17.998;2024-01-27T11:35:22;4.60;;;1.90;;
13485;SDS011;6815;59.336;17.998;2024-01-27T11:37:48;3.90;;;1.30;;
13485;SDS011;6815;59.336;17.998;2024-01-27T11:40:14;4.23;;;1.37;;
13485;SDS011;6815;59.336;17.998;2024-01-27T11:42:40;5.33;;;1.27;;
13485;SDS011;6815;59.336;17.998;2024-01-27T11:45:10;4.93;;;1.30;;
13485;SDS011;6815;59.336;17.998;2024-01-27T11:47:35;3.83;;;1.50;;
13485;SDS011;6815;59.336;17.998;2024-01-27T11:50:01;6.33;;;1.20;;
13485;SDS011;6815;59.336;17.998;2024-01-27T11:52:28;4.33;;;2.50;;
13485;SDS011;6815;59.336;17.998;2024-01-27T11:54:57;6.93;;;1.80;;
13485;SDS011;6815;59.336;17.998;2024-01-27T11:57:24;4.97;;;1.30;;
13485;SDS011;6815;59.336;17.998;2024-01-27T11:59:50;4.03;;;1.70;;
13485;SDS011;6815;59.336;17.998;2024-01-27T12:02:17;6.50;;;1.77;;
13485;SDS011;6815;59.336;17.998;2024-01-27T12:04:42;5.87;;;1.67;;
13485;SDS011;6815;59.336;17.998;2024-01-27T12:07:08;6.20;;;1.27;;
13485;SDS011;6815;59.336;17.998;2024-01-27T12:09:35;5.43;;;1.27;;
13485;SDS011;6815;59.336;17.998;2024-01-27T12:12:01;5.50;;;1.30;;
13485;SDS011;6815;59.336;17.998;2024-01-27T12:14:47;3.73;;;1.30;;
13485;SDS011;6815;59.336;17.998;2024-01-27T12:17:14;4.63;;;1.20;;
13485;SDS011;6815;59.336;17.998;2024-01-27T12:19:50;4.63;;;1.40;;
13485;SDS011;6815;59.336;17.998;2024-01-27T12:22:23;7.47;;;1.67;;
13485;SDS011;6815;59.336;17.998;2024-01-27T12:24:53;8.00;;;1.50;;
13485;SDS011;6815;59.336;17.998;2024-01-27T12:27:21;7.40;;;1.73;;
13485;SDS011;6815;59.336;17.998;2024-01-27T12:29:47;8.17;;;2.00;;
13485;SDS011;6815;59.336;17.998;2024-01-27T12:32:14;5.73;;;2.53;;
13485;SDS011;6815;59.336;17.998;2024-01-27T12:34:41;5.33;;;1.40;;
13485;SDS011;6815;59.336;17.998;2024-01-27T12:37:07;4.33;;;1.40;;
13485;SDS011;6815;59.336;17.998;2024-01-27T12:39:35;5.63;;;1.30;;
13485;SDS011;6815;59.336;17.998;2024-01-27T12:42:01;5.73;;;1.30;;
13485;SDS011;6815;59.336;17.998;2024-01-27T12:44:26;6.07;;;1.43;;
13485;SDS011;6815;59.336;17.998;2024-01-27T12:46:52;7.40;;;1.40;;
13485;SDS011;6815;59.336;17.998;2024-01-27T12:49:17;10.03;;;1.60;;
13485;SDS011;6815;59.336;17.998;2024-01-27T12:51:44;4.27;;;1.17;;
13485;SDS011;6815;59.336;17.998;2024-01-27T12:54:10;5.17;;;1.23;;
13485;SDS011;6815;59.336;17.998;2024-01-27T12:56:36;5.87;;;1.57;;
13485;SDS011;6815;59.336;17.998;2024-01-27T12:59:03;6.50;;;1.37;;
13485;SDS011;6815;59.336;17.998;2024-01-27T13:01:31;3.60;;;1.37;;
13485;SDS011;6815;59.336;17.998;2024-01-27T13:03:58;5.40;;;1.97;;
13485;SDS011;6815;59.336;17.998;2024-01-27T13:06:23;5.53;;;1.50;;
13485;SDS011;6815;59.336;17.998;2024-01-27T13:08:49;5.80;;;1.77;;
13485;SDS011;6815;59.336;17.998;2024-01-27T13:11:15;11.93;;;2.30;;
13485;SDS011;6815;59.336;17.998;2024-01-27T13:13:41;5.00;;;1.80;;
13485;SDS011;6815;59.336;17.998;2024-01-27T13:16:06;5.60;;;1.40;;
13485;SDS011;6815;59.336;17.998;2024-01-27T13:18:32;4.87;;;1.50;;
13485;SDS011;6815;59.336;17.998;2024-01-27T13:20:58;4.70;;;1.50;;
13485;SDS011;6815;59.336;17.998;2024-01-27T13:23:23;6.87;;;1.20;;
13485;SDS011;6815;59.336;17.998;2024-01-27T13:25:49;5.57;;;1.87;;
13485;SDS011;6815;59.336;17.998;2024-01-27T13:28:15;5.60;;;1.30;;
13485;SDS011;6815;59.336;17.998;2024-01-27T13:30:40;7.90;;;1.90;;
13485;SDS011;6815;59.336;17.998;2024-01-27T13:33:07;5.43;;;1.87;;
13485;SDS011;6815;59.336;17.998;2024-01-27T13:35:33;7.20;;;1.87;;
13485;SDS011;6815;59.336;17.998;2024-01-27T13:37:59;4.87;;;1.53;;
13485;SDS011;6815;59.336;17.998;2024-01-27T13:40:24;9.23;;;1.70;;
13485;SDS011;6815;59.336;17.998;2024-01-27T13:42:50;6.87;;;1.70;;
13485;SDS011;6815;59.336;17.998;2024-01-27T13:45:15;5.30;;;2.17;;
13485;SDS011;6815;59.336;17.998;2024-01-27T13:47:41;8.93;;;1.83;;
13485;SDS011;6815;59.336;17.998;2024-01-27T13:50:06;7.40;;;2.63;;
13485;SDS011;6815;59.336;17.998;2024-01-27T13:52:34;8.13;;;2.33;;
13485;SDS011;6815;59.336;17.998;2024-01-27T13:54:59;6.33;;;1.90;;
13485;SDS011;6815;59.336;17.998;2024-01-27T13:57:25;6.93;;;1.93;;
13485;SDS011;6815;59.336;17.998;2024-01-27T13:59:51;8.63;;;1.80;;
13485;SDS011;6815;59.336;17.998;2024-01-27T14:02:16;9.27;;;2.47;;
13485;SDS011;6815;59.336;17.998;2024-01-27T14:04:42;7.80;;;2.60;;
13485;SDS011;6815;59.336;17.998;2024-01-27T14:07:07;7.33;;;2.10;;
13485;SDS011;6815;59.336;17.998;2024-01-27T14:09:35;6.33;;;2.43;;
13485;SDS011;6815;59.336;17.998;2024-01-27T14:12:00;11.00;;;2.30;;
13485;SDS011;6815;59.336;17.998;2024-01-27T14:14:26;6.70;;;1.93;;
13485;SDS011;6815;59.336;17.998;2024-01-27T14:16:51;7.73;;;1.70;;
13485;SDS011;6815;59.336;17.998;2024-01-27T14:19:17;6.57;;;1.80;;
13485;SDS011;6815;59.336;17.998;2024-01-27T14:21:42;11.43;;;2.53;;
13485;SDS011;6815;59.336;17.998;2024-01-27T14:24:08;6.00;;;1.90;;
13485;SDS011;6815;59.336;17.998;2024-01-27T14:26:34;12.93;;;1.87;;
13485;SDS011;6815;59.336;17.998;2024-01-27T14:28:59;6.60;;;2.20;;
13485;SDS011;6815;59.336;17.998;2024-01-27T14:31:25;9.57;;;2.30;;
13485;SDS011;6815;59.336;17.998;2024-01-27T14:33:50;5.90;;;2.00;;
13485;SDS011;6815;59.336;17.998;2024-01-27T14:36:17;4.27;;;1.70;;
13485;SDS011;6815;59.336;17.998;2024-01-27T14:38:43;7.97;;;2.27;;
13485;SDS011;6815;59.336;17.998;2024-01-27T14:41:08;7.13;;;2.43;;
13485;SDS011;6815;59.336;17.998;2024-01-27T14:43:36;6.73;;;2.20;;